Nakhchivan — 9HHK8 — position and weather

sailwx.info

Track history (hours):
 
Tides and Currents Weather Stations Pressure Air Temp Water Temp Dewpoint Dewpoint Depression Visibility Wind Speed Wind Dir Waves Ship Positions

Nakhchivan

Last reported at 2016-May-05 11:32 UTC. Time now 2016-May-05 12:18 UTC.
Position N 32°51' E 034°60'.

Length 139 m; draft 4.6 m.

Type: Cargo ship. MMSI: 215983000.

Date/timePositionNaut miles runAvg speedWind from/ knotsBaromVisibWave heightAir tempDewpointWater temp
2016-May-05 11:32N 32°51' E 034°60'1 1.4
2016-May-05 10:33N 32°52' E 034°58'7 7.2
2016-May-05 09:32N 32°54' E 034°50'  
2016-May-02 15:21N 36°46' E 026°43'43 7.3
2016-May-02 09:28N 37°21' E 026°11'7 7.4
2016-May-02 08:31N 37°25' E 026°03'8 7.0
2016-May-02 07:22N 37°30' E 025°55'38 7.4
2016-May-02 02:10N 38°08' E 025°50'  
2016-Apr-28 04:33N 46°22' E 030°55'7 7.2
2016-Apr-28 03:33N 46°29' E 030°55'25 5.9
2016-Apr-27 23:20N 46°35' E 031°30'5 6.2
2016-Apr-27 22:32N 46°35' E 031°38'7 6.7
2016-Apr-27 21:33N 46°36' E 031°47'7 6.7
2016-Apr-27 20:33N 46°34' E 031°56'7 6.7
2016-Apr-27 19:33N 46°32' E 032°06'7 6.9
2016-Apr-27 18:33N 46°33' E 032°15'  
Track history (hours):
 
Tides and Currents Weather Stations Pressure Air Temp Water Temp Dewpoint Dewpoint Depression Visibility Wind Speed Wind Dir Waves Ship Positions

Nakhchivan

Last reported at 2016-May-05 11:32 UTC. Time now 2016-May-05 12:18 UTC.
Position N 32°51' E 034°60'.

Length 139 m; draft 4.6 m.

Type: Cargo ship. MMSI: 215983000.

Date/timePositionNaut miles runAvg speedWind from/ knotsBaromVisibWave heightAir tempDewpointWater temp
2016-May-05 11:32N 32°51' E 034°60'1 1.4
2016-May-05 10:33N 32°52' E 034°58'7 7.2
2016-May-05 09:32N 32°54' E 034°50'  
2016-May-02 15:21N 36°46' E 026°43'43 7.3
2016-May-02 09:28N 37°21' E 026°11'7 7.4
2016-May-02 08:31N 37°25' E 026°03'8 7.0
2016-May-02 07:22N 37°30' E 025°55'38 7.4
2016-May-02 02:10N 38°08' E 025°50'  
2016-Apr-28 04:33N 46°22' E 030°55'7 7.2
2016-Apr-28 03:33N 46°29' E 030°55'25 5.9
2016-Apr-27 23:20N 46°35' E 031°30'5 6.2
2016-Apr-27 22:32N 46°35' E 031°38'7 6.7
2016-Apr-27 21:33N 46°36' E 031°47'7 6.7
2016-Apr-27 20:33N 46°34' E 031°56'7 6.7
2016-Apr-27 19:33N 46°32' E 032°06'7 6.9
2016-Apr-27 18:33N 46°33' E 032°15'  

Dump ship's entire track history